Time;durP1;ratioP1;P1;durP2;ratioP2;P2;SDS_P1;SDS_P2;PMS_P1;PMS_P2;Temp;Humidity;BMP_temperature;BMP_pressure;BME280_temperature;BME280_humidity;BME280_pressure;Samples;Min_cycle;Max_cycle;Signal;HPM_P1;HPM_P2
2023/06/26 00:01:01;;;;;;;10.80;4.32;;;20.20;99.90;;;;;;5031899;28;20048;-82
2023/06/26 00:04:05;;;;;;;7.95;4.05;;;20.20;99.90;;;;;;5031657;28;20052;-82
2023/06/26 00:07:10;;;;;;;5.13;3.90;;;20.10;99.90;;;;;;5031680;28;20049;-82
2023/06/26 00:10:14;;;;;;;4.38;3.47;;;20.10;99.90;;;;;;5030822;28;20403;-81
2023/06/26 00:13:18;;;;;;;4.68;3.58;;;20.00;99.90;;;;;;5030168;28;20041;-83
2023/06/26 00:16:22;;;;;;;4.88;3.45;;;19.90;99.90;;;;;;5030467;28;20415;-83
2023/06/26 00:19:26;;;;;;;5.28;3.83;;;20.00;99.90;;;;;;5031102;28;20048;-82
2023/06/26 00:22:30;;;;;;;5.35;3.33;;;20.00;99.90;;;;;;5030949;28;20053;-83
2023/06/26 00:25:34;;;;;;;4.43;2.80;;;20.00;99.90;;;;;;5031116;28;20048;-81
2023/06/26 00:28:38;;;;;;;5.63;3.15;;;20.00;99.90;;;;;;5031006;28;20044;-83
2023/06/26 00:31:42;;;;;;;4.97;2.83;;;20.00;99.90;;;;;;5030019;28;20033;-82
2023/06/26 00:34:46;;;;;;;4.15;3.10;;;20.00;99.90;;;;;;5030685;28;20043;-82
2023/06/26 00:37:52;;;;;;;3.97;2.97;;;20.00;99.60;;;;;;5030007;28;20056;-82
2023/06/26 00:40:56;;;;;;;4.68;3.05;;;20.00;99.90;;;;;;5030912;28;20074;-82
2023/06/26 00:44:00;;;;;;;5.07;3.20;;;19.90;99.90;;;;;;5041534;28;20052;-82
2023/06/26 00:47:05;;;;;;;4.20;3.20;;;19.70;99.90;;;;;;5029661;28;20511;-82
2023/06/26 00:50:10;;;;;;;3.58;2.75;;;19.60;99.90;;;;;;5030103;28;20247;-83
2023/06/26 00:53:13;;;;;;;4.15;3.10;;;19.50;99.90;;;;;;5029380;28;20056;-82
2023/06/26 00:56:19;;;;;;;5.47;3.22;;;19.50;99.90;;;;;;5030857;28;20041;-82
2023/06/26 00:59:23;;;;;;;7.70;4.70;;;19.40;99.90;;;;;;5030535;28;20037;-83
2023/06/26 01:02:33;;;;;;;4.85;3.92;;;19.40;99.90;;;;;;5029531;28;20044;-81
2023/06/26 01:05:38;;;;;;;8.40;4.25;;;19.30;99.90;;;;;;5041135;28;20052;-82
2023/06/26 01:08:43;;;;;;;10.73;3.75;;;19.20;99.90;;;;;;5029751;28;20492;-83
2023/06/26 01:11:48;;;;;;;8.07;3.63;;;19.10;99.90;;;;;;5029713;28;20060;-83
2023/06/26 01:14:52;;;;;;;8.65;3.95;;;19.00;99.90;;;;;;5029529;28;20045;-82
2023/06/26 01:18:03;;;;;;;5.15;4.10;;;19.00;99.90;;;;;;5030554;28;20056;-82
2023/06/26 01:21:12;;;;;;;5.75;3.67;;;19.00;99.90;;;;;;5030493;28;20041;-82
2023/06/26 01:24:21;;;;;;;7.20;4.30;;;18.90;99.90;;;;;;5030481;28;20049;-83
2023/06/26 01:27:29;;;;;;;6.60;4.43;;;18.80;99.90;;;;;;5029693;28;20048;-82
2023/06/26 01:30:36;;;;;;;7.63;4.20;;;18.70;99.90;;;;;;5030068;28;20797;-83
2023/06/26 01:33:42;;;;;;;6.30;4.13;;;18.70;99.90;;;;;;5029467;28;20045;-83
2023/06/26 01:36:46;;;;;;;7.53;4.30;;;18.60;99.90;;;;;;5041165;28;20396;-81
2023/06/26 01:39:50;;;;;;;7.05;4.80;;;18.60;99.90;;;;;;5030346;28;20053;-82
2023/06/26 01:42:58;;;;;;;5.72;4.03;;;18.60;99.90;;;;;;5029142;28;20045;-82
2023/06/26 01:46:06;;;;;;;6.25;4.13;;;18.50;99.90;;;;;;5029410;28;20052;-82
2023/06/26 01:49:45;;;;;;;10.18;4.50;;;18.40;99.90;;;;;;5018012;28;20045;-82
2023/06/26 01:53:16;;;;;;;6.35;4.35;;;18.40;99.90;;;;;;5008521;28;20048;-82
2023/06/26 01:56:22;;;;;;;6.65;4.07;;;18.30;99.90;;;;;;5029399;28;20060;-82
2023/06/26 01:59:31;;;;;;;7.03;4.57;;;18.20;99.90;;;;;;5040379;28;20040;-82
2023/06/26 02:02:36;;;;;;;6.82;4.20;;;18.10;99.90;;;;;;5041131;28;20408;-83
2023/06/26 02:05:41;;;;;;;12.55;4.60;;;18.10;99.90;;;;;;5034039;28;20056;-81
2023/06/26 02:08:45;;;;;;;6.93;4.63;;;18.10;99.90;;;;;;5033714;28;20048;-82
2023/06/26 02:11:48;;;;;;;6.32;4.30;;;18.10;99.90;;;;;;5032385;28;20040;-83
2023/06/26 02:14:52;;;;;;;7.38;4.68;;;18.20;99.90;;;;;;5032702;28;20052;-81
2023/06/26 02:18:01;;;;;;;8.23;5.18;;;18.20;99.90;;;;;;5044112;28;20036;-83
2023/06/26 02:21:06;;;;;;;7.63;5.00;;;18.30;99.90;;;;;;5033750;28;20052;-81
2023/06/26 02:24:10;;;;;;;6.80;4.50;;;18.30;99.90;;;;;;5032696;28;20048;-82
2023/06/26 02:27:14;;;;;;;6.80;4.85;;;18.40;99.90;;;;;;5033398;28;20044;-82
2023/06/26 02:30:18;;;;;;;6.82;4.78;;;18.40;99.90;;;;;;5033193;28;20053;-82
2023/06/26 02:33:22;;;;;;;7.18;4.65;;;18.50;99.90;;;;;;5031821;28;20048;-82
2023/06/26 02:36:26;;;;;;;8.43;5.25;;;18.50;99.90;;;;;;5043521;28;20037;-82
2023/06/26 02:39:30;;;;;;;6.38;4.82;;;18.40;99.90;;;;;;5032222;28;20044;-82
2023/06/26 02:42:35;;;;;;;7.05;5.07;;;18.40;99.90;;;;;;5043476;28;20041;-81
2023/06/26 02:45:39;;;;;;;9.02;5.10;;;18.20;99.90;;;;;;5032184;28;20052;-83
2023/06/26 02:48:43;;;;;;;8.75;5.28;;;18.20;99.90;;;;;;5032930;28;20048;-82
2023/06/26 02:51:47;;;;;;;6.95;4.97;;;18.20;99.90;;;;;;5031621;28;20056;-82
2023/06/26 02:55:03;;;;;;;10.65;5.63;;;18.20;99.90;;;;;;5031542;28;21012;-82
2023/06/26 02:58:07;;;;;;;11.48;5.43;;;18.10;99.90;;;;;;5031962;28;20400;-81
2023/06/26 03:01:12;;;;;;;11.38;5.80;;;18.00;99.90;;;;;;5031622;28;20112;-83
2023/06/26 03:04:17;;;;;;;8.73;5.85;;;17.90;99.90;;;;;;5043366;28;20044;-82
2023/06/26 03:07:21;;;;;;;8.93;5.10;;;17.80;99.90;;;;;;5032559;28;20048;-82
2023/06/26 03:10:26;;;;;;;7.72;5.38;;;17.80;99.90;;;;;;5031863;28;20048;-82
2023/06/26 03:13:31;;;;;;;8.45;5.43;;;17.80;99.90;;;;;;5042566;28;20538;-81
2023/06/26 03:16:36;;;;;;;8.90;5.53;;;17.70;99.90;;;;;;5031437;28;20049;-81
2023/06/26 03:19:40;;;;;;;8.93;5.45;;;17.60;99.90;;;;;;5032182;28;20041;-82
2023/06/26 03:23:10;;;;;;;6.70;5.00;;;17.60;99.90;;;;;;5031641;28;20048;-82
2023/06/26 03:26:14;;;;;;;11.05;4.70;;;17.50;99.90;;;;;;5031077;28;20044;-81
2023/06/26 03:29:18;;;;;;;7.45;5.05;;;17.40;99.90;;;;;;5032403;28;20049;-81
2023/06/26 03:32:22;;;;;;;6.82;4.78;;;17.50;99.90;;;;;;5042216;28;20045;-81
2023/06/26 03:35:26;;;;;;;7.70;5.20;;;17.60;99.90;;;;;;5030735;28;20048;-81
2023/06/26 03:38:30;;;;;;;7.85;5.30;;;17.50;99.90;;;;;;5032076;28;20036;-82
2023/06/26 03:41:36;;;;;;;10.45;5.65;;;17.50;99.90;;;;;;5042227;28;20368;-82
2023/06/26 03:44:40;;;;;;;7.72;4.95;;;17.50;99.90;;;;;;5031819;28;20499;-81
2023/06/26 03:47:46;;;;;;;10.10;5.45;;;17.50;99.90;;;;;;5042681;28;20392;-81
2023/06/26 03:50:52;;;;;;;9.60;6.10;;;17.40;99.90;;;;;;5042465;28;20056;-81
2023/06/26 03:53:56;;;;;;;11.20;4.90;;;17.30;99.90;;;;;;5030762;28;20507;-82
2023/06/26 03:56:59;;;;;;;9.45;4.70;;;17.30;99.90;;;;;;5031691;28;20060;-82
2023/06/26 04:00:13;;;;;;;8.05;5.40;;;17.30;99.90;;;;;;5030858;28;20036;-81
2023/06/26 04:03:20;;;;;;;8.52;4.72;;;17.30;99.90;;;;;;5031362;28;20518;-82
2023/06/26 04:06:25;;;;;;;7.72;5.00;;;17.10;99.90;;;;;;5030610;28;20052;-81
2023/06/26 04:09:28;;;;;;;12.95;5.18;;;17.20;99.90;;;;;;5030544;28;20041;-82
2023/06/26 04:12:33;;;;;;;7.00;4.90;;;17.20;99.90;;;;;;5030787;28;20048;-82
2023/06/26 04:15:36;;;;;;;7.80;5.40;;;17.20;99.90;;;;;;5030885;28;20087;-83
2023/06/26 04:18:41;;;;;;;5.85;4.65;;;17.30;99.90;;;;;;5030090;28;20048;-82
2023/06/26 04:21:45;;;;;;;7.63;5.20;;;17.40;99.90;;;;;;5030785;28;20044;-82
2023/06/26 04:24:49;;;;;;;9.90;5.18;;;17.50;99.90;;;;;;5031421;28;20064;-82
2023/06/26 04:27:53;;;;;;;8.80;5.13;;;17.50;99.90;;;;;;5031225;28;20053;-81
2023/06/26 04:30:59;;;;;;;7.80;5.15;;;17.70;99.90;;;;;;5029992;28;20048;-82
2023/06/26 04:34:02;;;;;;;9.68;5.20;;;18.70;99.90;;;;;;5031862;28;20053;-81
2023/06/26 04:37:06;;;;;;;5.72;4.18;;;20.20;99.90;;;;;;5032265;28;20036;-81
2023/06/26 04:40:11;;;;;;;11.20;5.07;;;21.50;99.90;;;;;;5032499;28;20048;-82
2023/06/26 04:43:15;;;;;;;6.32;4.63;;;23.00;99.90;;;;;;5032325;28;20045;-81
2023/06/26 04:46:19;;;;;;;8.68;4.57;;;24.20;99.90;;;;;;5028723;28;20048;-82
2023/06/26 04:49:23;;;;;;;6.22;4.55;;;25.30;99.90;;;;;;5018607;28;20048;-81
2023/06/26 04:52:27;;;;;;;7.32;4.82;;;25.60;99.90;;;;;;5030072;28;20491;-82
2023/06/26 04:55:31;;;;;;;5.68;4.18;;;25.80;99.90;;;;;;5030155;28;20052;-82
2023/06/26 04:58:35;;;;;;;10.30;5.07;;;26.20;99.90;;;;;;5030702;28;20040;-82
2023/06/26 05:01:40;;;;;;;6.20;4.63;;;26.30;99.90;;;;;;5040497;28;20049;-81
2023/06/26 05:04:44;;;;;;;6.45;4.38;;;26.00;99.90;;;;;;5029651;28;20048;-82
2023/06/26 05:07:48;;;;;;;8.48;4.88;;;26.50;99.90;;;;;;5030342;28;20499;-82
2023/06/26 05:10:53;;;;;;;8.05;4.82;;;27.60;99.90;;;;;;5029665;28;20045;-81
2023/06/26 05:13:57;;;;;;;9.70;4.55;;;28.20;99.30;;;;;;5030232;28;20049;-82
2023/06/26 05:17:01;;;;;;;7.90;4.07;;;27.40;99.90;;;;;;5029974;28;20040;-82
2023/06/26 05:20:05;;;;;;;5.65;4.47;;;28.30;99.30;;;;;;5030203;28;20392;-81
2023/06/26 05:23:11;;;;;;;9.10;4.60;;;27.90;99.10;;;;;;5030151;28;20044;-83
2023/06/26 05:26:16;;;;;;;7.45;4.40;;;28.40;99.00;;;;;;5029816;28;20048;-82
2023/06/26 05:29:20;;;;;;;8.60;4.75;;;29.50;98.30;;;;;;5030305;28;20590;-82
2023/06/26 05:32:25;;;;;;;8.25;4.78;;;28.80;97.70;;;;;;5029665;28;20396;-83
2023/06/26 05:35:30;;;;;;;6.78;4.60;;;27.60;98.80;;;;;;5029988;28;20066;-82
2023/06/26 05:38:34;;;;;;;16.13;5.32;;;28.30;98.20;;;;;;5033065;28;20056;-82
2023/06/26 05:41:38;;;;;;;7.47;4.53;;;28.80;97.70;;;;;;5033769;28;20052;-82
2023/06/26 05:44:42;;;;;;;9.75;4.60;;;29.10;97.40;;;;;;5033914;28;20052;-82
2023/06/26 05:47:46;;;;;;;6.70;4.20;;;29.50;97.30;;;;;;5033804;28;20045;-83
2023/06/26 05:50:50;;;;;;;6.25;4.22;;;30.00;97.00;;;;;;5033956;28;20044;-83
2023/06/26 05:53:54;;;;;;;9.77;3.97;;;30.40;96.30;;;;;;5033198;28;20048;-85
2023/06/26 05:56:59;;;;;;;7.88;3.95;;;30.70;95.40;;;;;;5034393;28;20048;-82
2023/06/26 06:00:06;;;;;;;4.90;3.70;;;31.00;94.70;;;;;;5034373;28;20065;-83
2023/06/26 06:03:17;;;;;;;5.07;3.90;;;31.00;94.50;;;;;;5033407;28;20048;-83
2023/06/26 06:06:21;;;;;;;6.57;4.15;;;30.20;94.60;;;;;;5033979;28;20044;-82
2023/06/26 06:09:25;;;;;;;6.00;4.53;;;28.10;96.10;;;;;;5034232;28;20057;-82
2023/06/26 06:12:29;;;;;;;5.70;3.78;;;26.20;97.80;;;;;;5033254;28;20684;-82
2023/06/26 06:15:33;;;;;;;7.93;4.50;;;26.70;98.60;;;;;;5033808;28;20041;-82
2023/06/26 06:18:37;;;;;;;6.38;4.10;;;27.40;97.40;;;;;;5034085;28;20056;-82
2023/06/26 06:21:42;;;;;;;8.63;4.32;;;28.10;97.10;;;;;;5033233;28;20048;-82
2023/06/26 06:24:48;;;;;;;5.60;4.13;;;28.90;96.80;;;;;;5032862;28;20052;-82
2023/06/26 06:27:52;;;;;;;5.78;4.75;;;29.60;95.60;;;;;;5033948;28;20040;-82
2023/06/26 06:30:56;;;;;;;8.48;5.20;;;27.70;97.50;;;;;;5032980;28;20507;-82
2023/06/26 06:34:00;;;;;;;7.18;5.13;;;28.00;96.80;;;;;;5032874;28;20052;-82
2023/06/26 06:37:04;;;;;;;9.48;6.20;;;28.10;97.60;;;;;;5032922;28;20040;-82
2023/06/26 06:40:12;;;;;;;12.48;7.20;;;28.80;96.60;;;;;;5031626;28;20057;-82
2023/06/26 06:43:16;;;;;;;8.75;6.45;;;29.10;96.90;;;;;;5028466;28;20056;-82
2023/06/26 06:46:20;;;;;;;16.17;9.05;;;29.90;96.10;;;;;;5029302;28;20053;-81
2023/06/26 06:49:24;;;;;;;11.77;6.97;;;28.80;96.50;;;;;;5023145;28;20048;-81
2023/06/26 06:52:28;;;;;;;15.27;8.32;;;29.40;96.90;;;;;;5028560;28;20044;-82
2023/06/26 06:55:32;;;;;;;13.50;8.98;;;29.20;96.10;;;;;;5025578;28;20076;-82
2023/06/26 06:58:36;;;;;;;12.85;8.65;;;28.70;96.50;;;;;;5025510;28;20048;-82
2023/06/26 07:01:40;;;;;;;12.45;8.18;;;28.20;96.20;;;;;;5031257;28;20044;-82
2023/06/26 07:04:44;;;;;;;13.80;8.52;;;28.80;95.90;;;;;;5028942;28;20048;-83
2023/06/26 07:07:48;;;;;;;9.93;6.70;;;28.70;96.40;;;;;;5030298;28;20048;-82
2023/06/26 07:10:52;;;;;;;12.00;7.95;;;29.20;96.00;;;;;;5016072;28;20387;-82
2023/06/26 07:13:56;;;;;;;12.55;9.43;;;29.70;96.10;;;;;;5030745;28;20052;-82
2023/06/26 07:17:00;;;;;;;13.70;9.43;;;30.60;94.60;;;;;;5032577;28;20041;-82
2023/06/26 07:20:08;;;;;;;10.70;7.80;;;30.40;95.00;;;;;;5031526;28;20499;-82
2023/06/26 07:23:12;;;;;;;8.00;6.88;;;31.70;93.90;;;;;;5031876;28;20519;-84
2023/06/26 07:26:16;;;;;;;11.52;7.47;;;32.30;93.50;;;;;;5031337;28;20041;-83
2023/06/26 07:29:20;;;;;;;12.80;7.95;;;32.70;92.60;;;;;;5031590;28;20048;-83
2023/06/26 07:32:24;;;;;;;13.93;9.43;;;33.10;92.80;;;;;;5020029;28;20049;-83
2023/06/26 07:35:28;;;;;;;16.38;8.10;;;34.50;91.20;;;;;;5032331;28;20404;-87
2023/06/26 07:38:32;;;;;;;10.15;7.18;;;34.80;91.40;;;;;;5030795;28;20032;-84
2023/06/26 07:41:36;;;;;;;7.97;6.93;;;35.70;90.00;;;;;;5026583;28;20052;-84
2023/06/26 07:44:41;;;;;;;7.72;6.10;;;34.70;89.20;;;;;;5028790;28;20412;-82
2023/06/26 07:47:46;;;;;;;8.23;6.80;;;34.10;89.70;;;;;;5028648;28;20052;-82
2023/06/26 07:50:49;;;;;;;6.30;5.13;;;34.50;90.30;;;;;;5025463;28;20041;-81
2023/06/26 07:53:53;;;;;;;6.82;5.13;;;35.30;87.50;;;;;;5027727;28;20399;-78
2023/06/26 07:56:59;;;;;;;7.57;4.90;;;34.50;88.70;;;;;;5031867;28;20499;-81
2023/06/26 08:00:06;;;;;;;7.63;4.50;;;33.80;90.40;;;;;;5028474;28;20052;-80
2023/06/26 08:03:18;;;;;;;7.85;4.70;;;35.50;87.50;;;;;;5030327;28;20044;-81
2023/06/26 08:06:22;;;;;;;7.45;4.70;;;36.70;86.40;;;;;;5027147;28;20743;-80
2023/06/26 08:09:28;;;;;;;6.53;4.50;;;37.60;84.90;;;;;;5025601;28;20044;-80
2023/06/26 08:12:33;;;;;;;4.82;4.32;;;37.30;84.30;;;;;;5021781;28;20053;-81
2023/06/26 08:15:37;;;;;;;7.32;4.53;;;37.10;85.10;;;;;;5024300;28;20392;-81
2023/06/26 08:18:40;;;;;;;8.82;5.13;;;37.20;85.40;;;;;;5025451;28;20052;-80
2023/06/26 08:21:46;;;;;;;8.55;4.63;;;38.10;84.50;;;;;;5029943;28;20483;-82
2023/06/26 08:24:50;;;;;;;9.98;7.88;;;38.90;83.60;;;;;;5028244;28;20045;-80
2023/06/26 08:27:55;;;;;;;7.32;5.22;;;38.90;83.60;;;;;;5012037;28;20444;-81
2023/06/26 08:30:59;;;;;;;7.65;4.57;;;38.90;84.10;;;;;;5026851;28;20052;-81
2023/06/26 08:34:04;;;;;;;5.32;4.40;;;37.40;82.60;;;;;;5028522;28;20048;-80
2023/06/26 08:37:10;;;;;;;8.60;7.68;;;37.20;85.70;;;;;;5029651;28;20056;-80
2023/06/26 08:40:17;;;;;;;6.93;5.18;;;36.60;84.50;;;;;;5026707;28;20432;-81
2023/06/26 08:43:21;;;;;;;8.32;6.32;;;38.00;83.40;;;;;;5030631;28;20044;-80
2023/06/26 08:46:26;;;;;;;6.15;4.68;;;37.50;84.10;;;;;;5026829;28;20052;-81
2023/06/26 08:49:33;;;;;;;7.15;5.38;;;38.10;82.60;;;;;;5028456;28;20048;-82
2023/06/26 08:52:45;;;;;;;7.43;4.25;;;39.00;81.80;;;;;;5023555;28;20369;-81
2023/06/26 08:55:53;;;;;;;4.97;4.20;;;38.70;81.90;;;;;;5025172;28;20056;-82
2023/06/26 08:58:57;;;;;;;5.82;4.55;;;40.70;81.40;;;;;;5011458;28;20065;-81
2023/06/26 09:02:02;;;;;;;6.40;4.93;;;40.90;79.40;;;;;;5026148;28;20048;-82
2023/06/26 09:05:07;;;;;;;6.00;4.25;;;42.40;77.70;;;;;;5028293;28;20040;-83
2023/06/26 09:08:11;;;;;;;4.28;3.88;;;42.40;76.70;;;;;;5027788;28;20047;-82
2023/06/26 09:11:15;;;;;;;5.13;4.40;;;42.30;76.90;;;;;;5025158;28;20065;-81
2023/06/26 09:14:19;;;;;;;5.30;4.55;;;42.20;75.00;;;;;;5027011;28;20048;-82
2023/06/26 09:17:31;;;;;;;19.48;5.90;;;41.40;75.40;;;;;;5025111;28;20483;-82
2023/06/26 09:20:35;;;;;;;5.68;3.60;;;42.00;74.80;;;;;;5034145;28;20048;-82
2023/06/26 09:23:41;;;;;;;4.45;4.05;;;43.80;74.10;;;;;;5031165;28;20392;-82
2023/06/26 09:26:46;;;;;;;6.57;4.25;;;44.50;71.80;;;;;;5026542;28;20049;-81
2023/06/26 09:29:50;;;;;;;4.53;3.63;;;45.00;70.40;;;;;;5036260;28;20045;-82
2023/06/26 09:32:54;;;;;;;6.05;4.05;;;42.00;71.30;;;;;;5029638;28;20048;-81
2023/06/26 09:36:00;;;;;;;5.00;4.50;;;43.90;70.90;;;;;;5028664;28;20052;-81
2023/06/26 09:39:08;;;;;;;7.53;4.50;;;39.00;70.80;;;;;;5029720;28;20495;-82
2023/06/26 09:42:14;;;;;;;5.93;3.95;;;41.30;70.50;;;;;;5031255;28;20044;-81
2023/06/26 09:45:20;;;;;;;4.43;3.90;;;43.40;68.50;;;;;;5025410;28;20052;-82
2023/06/26 09:48:24;;;;;;;5.18;3.80;;;42.90;68.90;;;;;;5033728;28;20054;-83
2023/06/26 09:51:31;;;;;;;5.13;4.22;;;43.90;67.30;;;;;;5031244;28;20128;-82
2023/06/26 09:54:36;;;;;;;5.25;4.10;;;44.30;67.80;;;;;;5033310;28;20052;-84
2023/06/26 09:57:40;;;;;;;4.00;3.60;;;44.70;68.70;;;;;;5029725;28;20056;-84
2023/06/26 10:00:45;;;;;;;4.00;3.60;;;47.20;65.80;;;;;;5029409;28;20498;-86
2023/06/26 10:03:49;;;;;;;4.13;3.72;;;48.70;64.80;;;;;;5027360;28;20060;-86
2023/06/26 10:06:56;;;;;;;5.32;3.85;;;49.20;61.70;;;;;;5033149;28;20048;-84
2023/06/26 10:10:02;;;;;;;5.10;3.60;;;49.70;61.80;;;;;;5030141;28;20495;-84
2023/06/26 10:13:24;;;;;;;4.10;3.70;;;50.40;59.10;;;;;;5032544;28;20048;-84
2023/06/26 10:16:31;;;;;;;5.07;3.45;;;50.80;57.10;;;;;;5033252;28;20041;-84
2023/06/26 10:19:41;;;;;;;3.50;3.17;;;50.60;58.20;;;;;;5034100;28;20045;-84
2023/06/26 10:22:47;;;;;;;3.70;3.40;;;50.70;57.80;;;;;;5045042;28;20052;-85
2023/06/26 10:25:52;;;;;;;3.60;3.30;;;50.50;55.60;;;;;;5032078;28;20060;-84
2023/06/26 10:28:57;;;;;;;4.75;3.70;;;50.50;56.10;;;;;;5015032;28;20064;-86
2023/06/26 10:32:06;;;;;;;4.10;3.70;;;50.90;56.30;;;;;;5027224;28;20057;-84
2023/06/26 10:35:11;;;;;;;3.63;3.33;;;51.10;56.10;;;;;;5026577;28;20048;-88
2023/06/26 10:38:15;;;;;;;4.15;3.75;;;51.20;54.70;;;;;;5033236;28;20376;-84
2023/06/26 10:41:21;;;;;;;3.70;3.40;;;50.90;55.00;;;;;;5031720;28;20040;-82
2023/06/26 10:44:27;;;;;;;4.10;3.70;;;50.30;55.30;;;;;;5032142;28;20044;-86
2023/06/26 10:47:32;;;;;;;4.07;3.67;;;49.70;55.40;;;;;;5028136;28;20048;-84
2023/06/26 10:50:37;;;;;;;4.60;3.55;;;49.60;55.70;;;;;;5032316;28;20044;-83
2023/06/26 10:53:43;;;;;;;4.00;3.60;;;49.40;54.00;;;;;;5017870;28;20041;-84
2023/06/26 10:56:49;;;;;;;8.27;4.07;;;48.40;54.70;;;;;;5016194;28;20052;-86
2023/06/26 11:00:10;;;;;;;4.05;3.65;;;48.40;56.30;;;;;;5021964;28;20488;-86
2023/06/26 11:03:24;;;;;;;4.07;3.67;;;48.60;54.50;;;;;;5031433;28;20679;-82
2023/06/26 11:06:29;;;;;;;6.78;4.03;;;48.00;54.90;;;;;;5030998;28;20053;-82
2023/06/26 11:10:00;;;;;;;5.50;3.55;;;46.10;56.90;;;;;;5028779;28;20068;-82
2023/06/26 11:13:05;;;;;;;4.35;3.95;;;46.60;58.10;;;;;;5031038;28;20049;-79
2023/06/26 11:16:12;;;;;;;4.25;3.85;;;46.30;56.70;;;;;;5030743;28;20052;-81
2023/06/26 11:19:18;;;;;;;6.93;4.05;;;45.90;56.60;;;;;;5024913;28;20598;-82
2023/06/26 11:22:24;;;;;;;5.43;4.40;;;46.10;56.30;;;;;;5031394;28;20044;-81
2023/06/26 11:25:28;;;;;;;4.68;4.28;;;45.20;56.70;;;;;;5033104;28;20044;-79
2023/06/26 11:28:32;;;;;;;4.57;3.88;;;44.10;57.50;;;;;;5032376;28;20380;-80
2023/06/26 11:31:41;;;;;;;6.25;4.38;;;43.60;58.90;;;;;;5022533;28;20789;-81
2023/06/26 11:34:44;;;;;;;5.45;4.47;;;43.20;59.90;;;;;;5011381;28;20053;-80
2023/06/26 11:37:48;;;;;;;5.68;4.53;;;43.50;59.10;;;;;;5018089;28;20045;-81
2023/06/26 11:40:53;;;;;;;6.40;4.03;;;43.80;58.70;;;;;;5026921;28;20052;-80
2023/06/26 11:44:05;;;;;;;7.03;5.20;;;43.40;60.50;;;;;;5028727;28;20040;-78
2023/06/26 11:47:18;;;;;;;7.03;5.03;;;42.70;61.70;;;;;;5035871;28;20068;-79
2023/06/26 11:50:23;;;;;;;6.85;4.68;;;42.50;62.50;;;;;;5028582;28;20044;-78
2023/06/26 11:53:27;;;;;;;6.35;4.80;;;42.50;62.30;;;;;;5013500;28;20055;-79
2023/06/26 11:56:31;;;;;;;8.43;4.78;;;42.70;60.60;;;;;;5020351;28;20039;-79
2023/06/26 11:59:39;;;;;;;5.68;5.10;;;42.60;60.50;;;;;;5028157;28;20048;-80
2023/06/26 12:02:45;;;;;;;5.88;5.07;;;42.60;61.30;;;;;;5026906;28;20048;-79
2023/06/26 12:05:52;;;;;;;5.90;5.28;;;42.70;61.20;;;;;;5025958;28;20040;-78
2023/06/26 12:08:58;;;;;;;9.35;5.43;;;41.70;62.80;;;;;;5023334;28;20052;-79
2023/06/26 12:12:02;;;;;;;7.93;5.18;;;39.60;63.40;;;;;;5014380;28;20044;-78
2023/06/26 12:15:08;;;;;;;11.70;5.60;;;37.90;65.40;;;;;;5023831;28;20048;-83
2023/06/26 12:18:12;;;;;;;6.20;4.82;;;37.90;65.40;;;;;;5022313;28;20064;-82
2023/06/26 12:21:39;;;;;;;8.18;5.35;;;38.90;65.20;;;;;;5025585;28;20053;-79
2023/06/26 12:24:45;;;;;;;7.60;5.10;;;39.20;66.20;;;;;;5023181;28;20044;-80
2023/06/26 12:27:49;;;;;;;13.50;5.40;;;39.80;67.80;;;;;;5026458;28;20058;-81
2023/06/26 12:31:14;;;;;;;6.13;4.93;;;40.50;66.40;;;;;;5028051;28;20048;-83
2023/06/26 12:34:26;;;;;;;5.72;4.30;;;40.90;65.50;;;;;;5010785;28;20045;-84
2023/06/26 12:37:40;;;;;;;26.17;6.10;;;41.40;64.40;;;;;;5018270;28;20057;-80
2023/06/26 12:40:47;;;;;;;5.57;4.95;;;41.70;65.00;;;;;;5025543;28;20052;-82
2023/06/26 12:43:56;;;;;;;5.53;4.68;;;41.30;64.50;;;;;;5011281;28;20381;-82
2023/06/26 12:47:01;;;;;;;9.68;4.95;;;40.90;64.90;;;;;;5012501;28;20135;-79
2023/06/26 12:50:06;;;;;;;6.13;5.03;;;41.10;65.60;;;;;;5030044;28;20251;-79
2023/06/26 12:53:10;;;;;;;8.85;5.40;;;38.80;65.20;;;;;;5025955;28;20060;-81
2023/06/26 12:56:16;;;;;;;7.93;5.60;;;38.50;69.30;;;;;;5026061;28;20064;-82
2023/06/26 12:59:20;;;;;;;6.70;5.65;;;37.60;68.20;;;;;;5024163;28;20040;-82
2023/06/26 13:02:24;;;;;;;7.60;5.40;;;35.80;71.00;;;;;;5023587;28;20041;-78
2023/06/26 13:05:28;;;;;;;6.13;5.15;;;37.00;72.10;;;;;;5021577;28;20078;-82
2023/06/26 13:08:33;;;;;;;6.45;5.20;;;37.60;69.20;;;;;;5021522;28;20404;-79
2023/06/26 13:11:38;;;;;;;10.02;5.18;;;38.40;69.60;;;;;;5029043;28;20052;-82
2023/06/26 13:14:41;;;;;;;8.52;5.43;;;36.50;69.00;;;;;;5051728;28;20515;-82
2023/06/26 13:17:45;;;;;;;16.08;6.32;;;37.20;70.90;;;;;;5024262;28;20048;-82
2023/06/26 13:20:49;;;;;;;9.38;5.28;;;35.80;69.80;;;;;;5049966;28;20040;-82
2023/06/26 13:23:55;;;;;;;9.07;5.22;;;35.60;71.10;;;;;;5030102;28;20044;-82
2023/06/26 13:26:59;;;;;;;7.68;5.40;;;35.50;73.10;;;;;;5029929;28;20499;-80
2023/06/26 13:30:04;;;;;;;6.75;5.88;;;36.60;71.50;;;;;;5028787;28;20048;-79
2023/06/26 13:33:10;;;;;;;10.70;5.68;;;36.70;69.50;;;;;;5017208;28;20044;-81
2023/06/26 13:36:18;;;;;;;7.05;5.57;;;35.60;69.70;;;;;;5015877;28;20396;-81
2023/06/26 13:39:22;;;;;;;8.38;5.47;;;35.10;70.30;;;;;;5026845;28;20551;-82
2023/06/26 13:42:26;;;;;;;7.45;5.32;;;36.00;71.10;;;;;;5029402;28;20056;-83
2023/06/26 13:45:30;;;;;;;9.93;5.85;;;36.60;69.70;;;;;;5030020;28;20507;-81
2023/06/26 13:48:34;;;;;;;6.63;4.90;;;36.80;69.70;;;;;;5027221;28;20041;-81
2023/06/26 13:51:38;;;;;;;9.57;5.55;;;37.00;69.50;;;;;;5025001;28;20049;-81
2023/06/26 13:54:42;;;;;;;8.30;5.32;;;37.20;70.10;;;;;;5029998;28;20396;-81
2023/06/26 13:57:47;;;;;;;5.25;4.65;;;37.10;67.50;;;;;;5019611;28;20036;-82
2023/06/26 14:00:51;;;;;;;7.30;5.60;;;37.30;67.60;;;;;;5028621;28;20036;-81
2023/06/26 14:03:55;;;;;;;8.30;5.80;;;37.40;68.90;;;;;;5030646;28;20507;-84
2023/06/26 14:07:00;;;;;;;10.65;5.68;;;37.00;67.40;;;;;;5033637;28;20047;-81
2023/06/26 14:10:07;;;;;;;7.65;5.38;;;35.20;68.80;;;;;;5025814;28;20049;-80
2023/06/26 14:13:14;;;;;;;6.97;4.85;;;35.90;69.00;;;;;;5018509;28;20053;-80
2023/06/26 14:16:20;;;;;;;8.32;5.82;;;36.00;67.40;;;;;;5030573;28;20048;-82
2023/06/26 14:19:26;;;;;;;9.57;5.40;;;34.40;67.50;;;;;;5021305;28;20045;-82
2023/06/26 14:22:29;;;;;;;8.05;5.60;;;34.80;70.20;;;;;;5014679;28;20045;-81
2023/06/26 14:25:33;;;;;;;7.30;5.40;;;34.40;70.20;;;;;;5032035;28;20056;-81
2023/06/26 14:28:39;;;;;;;7.72;5.60;;;34.90;70.70;;;;;;5032401;28;20057;-82
2023/06/26 14:31:43;;;;;;;11.05;5.50;;;35.40;69.80;;;;;;5032555;28;20064;-87
2023/06/26 14:34:47;;;;;;;8.07;5.70;;;35.90;69.00;;;;;;5013774;28;20041;-84
2023/06/26 14:37:52;;;;;;;8.13;5.38;;;35.80;68.10;;;;;;5018522;28;20040;-87
2023/06/26 14:40:56;;;;;;;9.55;5.32;;;35.80;67.40;;;;;;5034099;28;20045;-85
2023/06/26 14:44:00;;;;;;;8.60;5.13;;;35.30;65.80;;;;;;5034969;28;20045;-89
2023/06/26 14:47:05;;;;;;;6.78;5.47;;;35.10;69.40;;;;;;5034246;28;20048;-86
2023/06/26 14:50:09;;;;;;;25.08;5.93;;;34.60;68.70;;;;;;5032051;28;20104;-88
2023/06/26 14:53:13;;;;;;;10.45;5.90;;;34.90;70.00;;;;;;5023400;28;20049;-85
2023/06/26 14:56:17;;;;;;;6.20;5.00;;;34.80;68.50;;;;;;5026664;28;20048;-85
2023/06/26 14:59:21;;;;;;;6.80;5.00;;;35.00;69.70;;;;;;5026731;28;20044;-84
2023/06/26 15:02:25;;;;;;;6.80;5.30;;;35.00;69.40;;;;;;5022967;28;20044;-84
2023/06/26 15:05:30;;;;;;;12.35;5.85;;;34.70;68.90;;;;;;5032274;28;20048;-84
2023/06/26 15:08:34;;;;;;;21.40;5.93;;;34.90;70.20;;;;;;5032006;28;20052;-83
2023/06/26 15:11:38;;;;;;;9.13;5.25;;;35.00;69.00;;;;;;5029811;28;20040;-84
2023/06/26 15:14:42;;;;;;;5.63;4.93;;;34.70;69.60;;;;;;5032299;28;20057;-85
2023/06/26 15:17:46;;;;;;;9.57;5.30;;;34.80;70.30;;;;;;5022652;28;20056;-83
2023/06/26 15:20:50;;;;;;;5.78;4.45;;;34.90;70.40;;;;;;5021758;28;20049;-83
2023/06/26 15:23:54;;;;;;;10.18;5.43;;;34.90;70.40;;;;;;5020358;28;20044;-84
2023/06/26 15:26:58;;;;;;;6.78;5.35;;;34.70;68.40;;;;;;5020922;28;20057;-85
2023/06/26 15:30:02;;;;;;;5.78;4.72;;;34.70;67.90;;;;;;5011126;28;20061;-83
2023/06/26 15:33:07;;;;;;;5.93;5.32;;;34.50;69.80;;;;;;5011896;28;20131;-82
2023/06/26 15:36:11;;;;;;;6.80;4.95;;;33.80;69.50;;;;;;5012032;28;20058;-86
2023/06/26 15:39:15;;;;;;;6.85;5.43;;;33.90;70.70;;;;;;5012081;28;20034;-83
2023/06/26 15:42:19;;;;;;;5.63;5.00;;;33.20;69.50;;;;;;5011532;28;20045;-83
2023/06/26 15:45:26;;;;;;;10.95;5.63;;;33.50;73.10;;;;;;5012127;28;20049;-84
2023/06/26 15:48:31;;;;;;;6.05;5.25;;;33.70;71.50;;;;;;5011770;28;20389;-83
2023/06/26 15:51:37;;;;;;;8.80;5.75;;;33.90;72.80;;;;;;5010319;28;20052;-84
2023/06/26 15:54:41;;;;;;;6.35;4.95;;;34.00;71.90;;;;;;5011861;28;20057;-83
2023/06/26 15:57:45;;;;;;;6.70;5.00;;;34.00;70.00;;;;;;5010864;28;20044;-84
2023/06/26 16:00:49;;;;;;;5.22;4.70;;;34.00;70.60;;;;;;5011571;28;20060;-83
2023/06/26 16:03:53;;;;;;;5.55;5.05;;;33.90;69.60;;;;;;5011669;28;20507;-85